Latest Weather Observations for Kingfish B

IDV60801

Issued at 11:02 am EST Monday 2 May 2016 (issued every 30 minutes, with the page automatically refreshed every 10 minutes)

About weather observations | Map of weather stations | Latest weather observations for VIC | Other Formats
Station Details ID: 400139 Name: KINGFISH B (PLATFORM) Lat: -38.60 Lon: 148.19 Height: 31.4 m
Data from the previous 72 hours. | See also: Recent months for locations in Victoria
Date/Time
EST
Temp
°C
App
Temp
°C
Dew
Point
Rel
Hum
%
Delta-T
°C
Wind Press
QNH
hPa
Press
MSL
hPa
Rain
since 9 am
mm
Dir
 
Spd
km/h
Gust
km/h
Spd
kts
Gust
kts
02/09:50am 17.1 9.2 4.3 42 6.0 WNW 35 43 19 23 1012.4 - -
02/09:40am 17.0 9.5 4.5 43 5.9 WNW 33 43 18 23 1012.5 - -
02/09:30am 16.9 9.0 4.2 43 6.0 WNW 35 43 19 23 1012.5 - -
02/09:20am 17.0 9.1 4.2 42 6.0 WNW 35 44 19 24 1012.6 - -
02/09:10am 17.1 9.6 4.7 44 5.9 WNW 33 41 18 22 1012.7 - -
02/09:00am 17.0 9.6 4.8 44 5.8 WNW 33 41 18 22 1012.8 - -
02/08:50am 16.9 10.0 4.6 44 5.8 WNW 30 37 16 20 1012.8 - -
02/08:40am 16.9 9.4 4.5 43 5.9 WNW 33 41 18 22 1012.8 - -
02/08:30am 16.9 9.5 5.2 46 5.6 WNW 33 43 18 23 1012.8 - -
02/08:20am 17.1 9.6 4.6 43 5.9 WNW 33 41 18 22 1012.8 - -
02/08:10am 17.1 9.3 4.7 44 5.9 WNW 35 43 19 23 1012.8 - -
02/08:00am 17.0 8.7 4.3 43 6.0 WNW 37 46 20 25 1012.8 - -
02/07:50am 17.0 9.1 4.5 43 5.9 WNW 35 44 19 24 1012.9 - -
02/07:40am 16.7 9.2 4.7 45 5.7 WNW 33 41 18 22 1012.9 - -
02/07:30am 16.6 9.2 4.9 46 5.6 WNW 33 43 18 23 1012.9 - -
02/07:20am 16.5 9.3 5.1 47 5.4 WNW 32 41 17 22 1012.9 - -
02/07:10am 16.4 9.0 5.0 47 5.4 WNW 33 39 18 21 1012.9 - -
02/07:00am 16.2 8.4 4.7 46 5.4 WNW 35 44 19 24 1012.9 - -
02/06:50am 16.0 8.2 4.7 47 5.3 WNW 35 43 19 23 1012.8 - -
02/06:40am 15.7 7.9 4.8 48 5.1 W 35 44 19 24 1012.7 - -
02/06:30am 15.5 7.3 4.8 49 5.0 W 37 46 20 25 1012.6 - -
02/06:20am 15.3 7.2 5.1 50 4.8 W 37 43 20 23 1012.6 - -
02/06:10am 15.1 6.9 5.0 51 4.8 W 37 44 20 24 1012.6 - -
02/06:00am 15.0 6.4 4.7 50 4.8 W 39 46 21 25 1012.5 - -
02/05:40am 15.0 6.3 5.8 54 4.4 W 41 50 22 27 1012.2 - -
02/05:30am 14.9 5.7 5.6 53 4.4 W 43 56 23 30 1012.0 - -
02/05:20am 14.8 5.5 5.7 54 4.3 W 44 52 24 28 1012.1 - -
02/05:10am 14.7 5.3 5.6 54 4.3 W 44 57 24 31 1012.1 - -
02/05:00am 14.8 5.5 5.8 55 4.3 W 44 52 24 28 1012.1 - -
02/04:50am 14.7 5.6 5.7 55 4.3 W 43 52 23 28 1012.2 - -
02/04:40am 14.7 5.4 5.9 55 4.2 W 44 52 24 28 1012.1 - -
02/04:30am 14.7 5.0 5.6 54 4.3 W 46 56 25 30 1012.0 - -
02/04:20am 14.7 5.0 5.9 55 4.2 W 46 54 25 29 1012.0 - -
02/04:10am 14.6 4.9 5.9 56 4.2 W 46 56 25 30 1011.9 - -
02/04:00am 14.6 4.6 6.2 57 4.0 W 48 61 26 33 1011.8 - -
02/03:50am 14.6 4.6 6.2 57 4.0 W 48 57 26 31 1011.6 - -
02/03:40am 14.6 4.3 6.5 58 3.9 W 50 59 27 32 1011.5 - -
02/03:30am 14.5 4.2 6.3 58 3.9 W 50 61 27 33 1011.4 - -
02/03:20am 14.5 3.3 6.0 56 4.1 W 54 65 29 35 1011.3 - -
02/03:10am 14.5 3.3 5.9 56 4.1 W 54 63 29 34 1011.2 - -
02/03:00am 14.5 3.0 6.1 57 4.0 W 56 69 30 37 1011.0 - -
02/02:50am 14.5 3.0 6.3 58 3.9 W 56 65 30 35 1011.0 - -
02/02:40am 14.5 3.4 6.5 58 3.9 W 54 65 29 35 1011.0 - -
02/02:30am 14.6 3.5 6.5 58 3.9 W 54 67 29 36 1011.0 - -
02/02:20am 14.9 4.6 6.7 58 4.0 W 50 59 27 32 1011.1 - -
02/02:10am 14.9 4.7 6.8 58 4.0 W 50 63 27 34 1011.1 - -
02/02:00am 14.5 3.9 6.7 59 3.8 W 52 63 28 34 1011.1 - -
02/01:50am 14.5 3.5 6.7 59 3.8 W 54 63 29 34 1011.2 - -
02/01:40am 14.5 3.9 6.7 59 3.8 W 52 65 28 35 1011.1 - -
02/01:30am 14.4 2.8 6.6 59 3.8 W 57 67 31 36 1011.0 - -
02/01:20am 14.6 3.6 7.0 60 3.7 W 54 67 29 36 1011.1 - -
02/01:10am 14.5 2.5 6.6 59 3.8 W 59 69 32 37 1011.2 - -
02/01:00am 14.6 2.6 6.6 58 3.9 W 59 69 32 37 1011.2 - -
02/12:50am 14.7 3.3 6.8 59 3.9 W 56 67 30 36 1011.3 - -
02/12:40am 14.6 3.2 6.7 59 3.8 W 56 63 30 34 1011.4 - -
02/12:30am 14.7 4.1 7.0 60 3.8 W 52 67 28 36 1011.4 - -
02/12:20am 14.7 3.4 7.0 60 3.8 W 56 67 30 36 1011.2 - -
02/12:10am 14.6 2.7 7.1 60 3.7 W 59 69 32 37 1011.0 - -
02/12:00am 14.7 2.8 7.1 60 3.7 W 59 69 32 37 1011.0 - -
 
Date/Time
EST
Temp
°C
App
Temp
°C
Dew
Point
Rel
Hum
%
Delta-T
°C
Wind Press
QNH
hPa
Press
MSL
hPa
Rain
since 9 am
mm
Dir
 
Spd
km/h
Gust
km/h
Spd
kts
Gust
kts
01/11:50pm 14.7 3.5 7.4 61 3.6 W 56 67 30 36 1011.1 - -
01/11:40pm 14.6 3.1 7.0 60 3.7 W 57 67 31 36 1011.3 - -
01/11:30pm 14.6 3.3 7.3 61 3.6 W 56 65 30 35 1011.3 - -
01/11:20pm 14.6 3.3 7.2 61 3.6 W 56 65 30 35 1011.1 - -
01/11:10pm 14.6 3.4 7.4 62 3.6 W 56 65 30 35 1011.5 - -
01/11:00pm 14.5 3.0 7.1 61 3.6 W 57 65 31 35 1011.6 - -
01/10:50pm 14.5 3.6 7.2 61 3.6 W 54 67 29 36 1011.5 - -
01/10:40pm 14.5 3.0 7.0 60 3.7 W 57 67 31 36 1011.4 - -
01/10:30pm 14.7 2.8 7.0 60 3.8 W 59 72 32 39 1011.4 - -
01/10:20pm 15.9 4.6 7.8 58 4.1 W 57 70 31 38 1011.4 - -
01/10:10pm 14.9 3.5 7.7 62 3.6 W 57 65 31 35 1011.4 - -
01/10:00pm 14.6 2.8 7.3 61 3.6 W 59 69 32 37 1011.4 - -
01/09:50pm 14.6 3.2 7.5 62 3.5 W 57 69 31 37 1011.6 - -
01/09:40pm 14.9 3.5 7.5 61 3.7 W 57 70 31 38 1011.5 - -
01/09:30pm 15.2 3.4 7.5 60 3.8 W 59 72 32 39 1011.6 - -
01/09:20pm 14.8 3.4 7.6 62 3.6 W 57 67 31 36 1011.7 - -
01/09:10pm 14.7 3.5 7.4 61 3.6 W 56 67 30 36 1011.7 - -
01/09:00pm 14.7 3.3 7.7 63 3.5 W 57 70 31 38 1011.6 - -
01/08:50pm 14.7 3.3 7.7 63 3.5 W 57 67 31 36 1011.6 - -
01/08:40pm 14.7 3.9 7.8 63 3.4 W 54 65 29 35 1011.4 - -
01/08:30pm 14.6 3.5 7.9 64 3.3 W 56 67 30 36 1011.2 - -
01/08:20pm 14.6 3.9 8.0 64 3.3 W 54 63 29 34 1011.2 - -
01/08:10pm 14.6 3.5 8.1 65 3.3 W 56 67 30 36 1010.9 - -
01/08:00pm 14.7 4.4 8.2 65 3.3 W 52 65 28 35 1010.8 - -
01/07:50pm 14.7 4.1 8.3 65 3.2 W 54 67 29 36 1010.7 - -
01/07:40pm 14.6 4.3 8.1 65 3.3 W 52 65 28 35 1010.7 - -
01/07:30pm 14.6 4.3 8.2 65 3.2 W 52 65 28 35 1010.6 - -
01/07:20pm 14.5 4.6 8.2 66 3.2 W 50 61 27 33 1010.6 - -
01/07:10pm 14.6 5.1 8.2 65 3.2 W 48 59 26 32 1010.6 - -
01/07:00pm 14.9 5.0 8.1 64 3.4 W 50 59 27 32 1010.4 - -
01/06:50pm 15.0 4.2 7.8 62 3.6 W 54 65 29 35 1010.0 - -
01/06:40pm 15.0 3.7 7.1 59 3.9 W 56 69 30 37 1009.5 - -
01/06:30pm 15.1 3.9 7.5 60 3.8 WSW 56 67 30 36 1009.4 - -
01/06:20pm 15.1 3.9 7.7 61 3.7 W 56 69 30 37 1009.4 - -
01/06:10pm 15.2 3.4 7.5 60 3.8 W 59 74 32 40 1009.3 - -
01/06:00pm 15.2 3.7 7.2 59 3.9 W 57 70 31 38 1009.1 - -
01/05:50pm 15.2 3.4 7.5 60 3.8 W 59 70 32 38 1008.8 - -
01/05:40pm 15.2 3.1 7.6 60 3.8 W 61 72 33 39 1008.7 - -
01/05:30pm 15.3 3.2 7.6 60 3.8 W 61 76 33 41 1008.6 - -
01/05:20pm 15.3 2.8 7.5 59 3.9 W 63 76 34 41 1008.3 - -
01/05:10pm 15.4 2.8 7.4 59 4.0 W 63 82 34 44 1008.1 - -
01/05:00pm 15.6 2.7 7.5 58 4.0 W 65 82 35 44 1007.7 - -
01/04:50pm 15.5 2.9 7.4 58 4.0 W 63 72 34 39 1007.5 - -
01/04:40pm 15.6 3.1 7.8 59 3.9 W 63 78 34 42 1007.2 - -
01/04:30pm 15.7 3.2 7.8 59 4.0 W 63 78 34 42 1006.9 - -
01/04:20pm 15.9 3.4 7.7 58 4.1 WSW 63 76 34 41 1006.8 - -
01/04:10pm 16.2 2.6 7.8 57 4.2 WSW 69 82 37 44 1006.7 - -
01/04:00pm 16.3 4.2 7.6 56 4.4 WSW 61 76 33 41 1006.8 - -
01/03:50pm 16.4 4.7 7.7 56 4.4 WSW 59 78 32 42 1006.6 - -
01/03:40pm 16.4 5.2 7.5 55 4.5 WSW 56 70 30 38 1006.7 - -
01/03:20pm 16.3 6.0 8.2 58 4.1 W 52 63 28 34 1006.4 - -
01/03:10pm 16.4 5.8 8.4 59 4.1 W 54 63 29 34 1006.2 - -
01/03:00pm 16.3 5.2 8.1 58 4.2 W 56 67 30 36 1006.1 - -
01/02:50pm 16.2 5.1 8.0 58 4.1 W 56 69 30 37 1006.0 - -
01/02:40pm 16.1 5.0 8.2 59 4.0 W 56 67 30 36 1005.8 - -
01/02:30pm 16.1 3.7 8.2 59 4.0 WSW 63 74 34 40 1005.4 - -
01/02:20pm 16.0 3.7 8.7 62 3.7 WSW 63 72 34 39 1005.2 - -
01/02:10pm 16.2 4.4 8.9 62 3.8 WSW 61 74 33 40 1005.2 - -
01/02:00pm 16.3 3.7 8.8 61 3.8 WSW 65 83 35 45 1004.6 - -
01/01:50pm 16.6 3.7 9.3 62 3.8 WSW 67 82 36 44 1004.2 - -
01/01:40pm 16.9 3.9 8.8 59 4.2 WSW 67 82 36 44 1004.0 - -
01/01:30pm 16.9 4.9 8.4 57 4.3 WSW 61 78 33 42 1004.0 - -
01/01:20pm 17.2 3.8 8.5 56 4.5 WSW 69 83 37 45 1003.5 - -
01/01:10pm 17.6 5.0 8.9 56 4.5 WSW 65 82 35 44 1003.4 - -
01/01:00pm 17.8 4.7 8.5 54 4.8 WSW 67 80 36 43 1002.8 - -
01/12:50pm 18.2 6.8 9.2 55 4.7 WSW 59 72 32 39 1002.8 - -
01/12:40pm 18.7 7.8 8.9 53 5.1 WSW 56 69 30 37 1002.9 - -
01/12:30pm 18.7 7.4 8.0 49 5.5 W 57 72 31 39 1002.9 - -
01/12:20pm 18.6 7.0 8.3 51 5.3 W 59 72 32 39 1002.8 - -
01/12:10pm 18.7 6.7 8.2 50 5.4 W 61 72 33 39 1002.7 - -
01/12:00pm 18.9 7.8 8.8 52 5.3 W 57 72 31 39 1002.7 - -
01/11:50am 18.9 7.8 8.6 51 5.4 W 57 72 31 39 1002.7 - -
01/11:40am 19.0 8.1 8.7 51 5.4 W 56 65 30 35 1002.8 - -
01/11:30am 19.2 8.2 8.3 49 5.6 W 56 67 30 36 1002.9 - -
01/11:20am 19.4 7.8 8.3 48 5.8 W 59 70 32 38 1002.8 - -
01/11:10am 19.5 7.9 8.2 48 5.8 W 59 72 32 39 1002.7 - -
01/11:00am 19.5 7.0 7.9 47 6.0 W 63 74 34 40 1002.7 - -
01/10:50am 19.5 7.6 8.6 49 5.7 W 61 74 33 40 1002.7 - -
01/10:40am 19.6 8.5 8.6 49 5.7 W 57 69 31 37 1002.8 - -
01/10:30am 19.7 8.1 8.3 47 5.9 W 59 74 32 40 1002.8 - -
01/10:20am 19.9 6.6 7.7 45 6.3 W 67 85 36 46 1002.5 - -
01/10:10am 20.3 6.5 7.0 42 6.8 W 69 89 37 48 1002.4 - -
01/10:00am 20.4 6.6 7.9 44 6.5 W 70 87 38 47 1002.2 - -
01/09:50am 20.9 10.5 11.3 54 5.3 W 57 83 31 45 1002.5 - -
01/09:40am 20.9 14.1 13.0 60 4.5 WNW 41 57 22 31 1002.5 - -
01/09:30am 20.5 15.4 13.8 65 3.9 NW 33 44 18 24 1002.5 - -
01/09:20am 20.5 16.1 14.2 67 3.7 NW 30 41 16 22 1002.6 - -
01/09:10am 20.7 16.3 14.2 66 3.8 NW 30 37 16 20 1002.7 - -
01/09:00am 20.1 15.8 14.4 69 3.3 NW 30 37 16 20 1002.6 - -
01/08:50am 19.8 16.2 14.3 70 3.2 NW 26 41 14 22 1002.6 - -
01/08:40am 19.9 17.1 14.2 69 3.3 NNW 22 28 12 15 1002.7 - -
01/08:30am 19.8 17.4 13.9 69 3.4 NNW 19 22 10 12 1002.8 - -
01/08:20am 19.5 16.8 13.6 68 3.4 NNW 20 26 11 14 1003.0 - -
01/08:10am 19.3 17.1 13.2 68 3.5 N 17 22 9 12 1002.9 - -
01/08:00am 19.3 17.0 13.0 67 3.6 N 17 22 9 12 1002.9 - -
01/07:50am 19.0 17.4 12.7 67 3.5 N 13 20 7 11 1003.1 - -
01/07:40am 18.9 16.5 12.5 66 3.6 N 17 19 9 10 1003.2 - -
01/07:30am 19.1 17.1 12.6 66 3.6 N 15 19 8 10 1003.4 - -
01/07:20am 18.8 16.7 12.5 67 3.5 NW 15 19 8 10 1003.5 - -
01/07:10am 18.6 16.2 12.5 67 3.4 NNW 17 20 9 11 1003.6 - -
01/07:00am 18.5 16.1 12.6 68 3.3 NW 17 20 9 11 1003.8 - -
01/06:50am 18.4 15.7 12.8 70 3.1 NW 19 22 10 12 1003.8 - -
01/06:40am 18.2 15.3 12.9 71 3.0 NW 20 24 11 13 1003.8 - -
01/06:30am 18.1 15.3 13.3 73 2.7 NW 20 22 11 12 1003.9 - -
01/06:20am 18.2 15.8 13.8 75 2.5 NW 19 24 10 13 1003.8 - -
01/06:10am 18.6 16.4 14.5 77 2.4 NW 19 26 10 14 1003.7 - -
01/06:00am 18.7 14.1 15.0 79 2.2 NW 33 41 18 22 1004.1 - -
01/05:50am 18.8 13.8 15.1 79 2.2 NW 35 46 19 25 1004.1 - -
01/05:40am 18.7 13.6 14.8 78 2.3 NW 35 43 19 23 1004.3 - -
01/05:30am 18.9 14.8 14.8 77 2.4 NW 30 39 16 21 1004.5 - -
01/05:20am 18.6 15.4 14.3 76 2.5 NNW 24 33 13 18 1004.4 - -
01/05:10am 19.0 13.7 14.3 74 2.7 NNW 35 56 19 30 1004.4 - -
01/05:00am 19.7 14.6 14.7 73 2.9 NNW 35 57 19 31 1004.6 - -
01/04:50am 20.3 16.7 15.3 73 3.0 NNW 28 37 15 20 1004.3 - -
01/04:40am 20.3 17.1 15.2 72 3.0 N 26 33 14 18 1003.9 - -
01/03:10am 20.3 16.1 14.6 70 3.3 NNE 30 33 16 18 1003.9 - -
01/03:00am 20.3 16.8 14.4 69 3.4 NNE 26 30 14 16 1004.1 - -
01/02:50am 20.4 16.5 14.3 68 3.5 NNE 28 32 15 17 1004.2 - -
01/02:20am 20.5 16.6 14.3 67 3.6 NNE 28 30 15 16 1004.8 - -
01/02:10am 20.6 15.9 14.4 67 3.6 NNE 32 35 17 19 1005.5 - -
01/02:00am 20.8 16.1 14.2 66 3.8 NNE 32 35 17 19 1005.8 - -
01/01:50am 20.8 15.8 13.9 64 4.0 N 33 35 18 19 1005.7 - -
01/01:40am 20.6 15.7 14.4 67 3.6 N 33 35 18 19 1006.0 - -
01/01:30am 20.5 15.9 14.7 69 3.4 N 32 37 17 20 1006.3 - -
01/01:20am 20.6 16.8 14.7 69 3.5 N 28 33 15 18 1006.5 - -
01/01:10am 20.7 17.5 14.3 66 3.7 N 24 26 13 14 1006.4 - -
01/01:00am 20.5 17.4 14.4 68 3.6 - 24 30 13 16 1006.7 - -
01/12:50am 20.3 17.2 14.6 70 3.3 - 24 28 13 15 1006.8 - -
01/12:30am 20.3 18.1 14.9 71 3.2 N 20 26 11 14 1007.3 - -
01/12:20am 20.3 19.1 15.0 71 3.1 N 15 24 8 13 1007.9 - -
01/12:10am 20.4 18.4 15.0 71 3.2 - 19 24 10 13 1008.1 - -
01/12:00am 20.6 18.6 15.0 70 3.3 N 19 22 10 12 1008.2 - -
 
Date/Time
EST
Temp
°C
App
Temp
°C
Dew
Point
Rel
Hum
%
Delta-T
°C
Wind Press
QNH
hPa
Press
MSL
hPa
Rain
since 9 am
mm
Dir
 
Spd
km/h
Gust
km/h
Spd
kts
Gust
kts
30/11:50pm 20.7 18.5 14.8 69 3.5 - 20 24 11 13 1008.3 - -
30/11:40pm 20.8 18.1 14.7 68 3.6 N 22 26 12 14 1008.4 - -
30/11:30pm 21.0 18.7 14.7 67 3.7 NNW 20 26 11 14 1008.8 - -
30/11:20pm 21.2 18.2 14.7 66 3.8 NNW 24 30 13 16 1009.0 - -
30/11:10pm 21.3 17.5 14.8 66 3.8 NW 28 33 15 18 1009.3 - -
30/11:00pm 21.3 17.6 15.0 67 3.7 NW 28 32 15 17 1009.4 - -
30/10:50pm 21.2 17.5 15.1 68 3.6 NW 28 32 15 17 1009.3 - -
30/10:40pm 21.3 18.0 15.1 67 3.7 NW 26 30 14 16 1009.3 - -
30/10:30pm 21.2 17.6 15.2 68 3.6 NW 28 33 15 18 1009.4 - -
30/10:20pm 21.1 16.8 15.3 69 3.4 NW 32 35 17 19 1009.6 - -
30/10:10pm 20.9 18.8 15.1 69 3.4 NW 20 28 11 15 1009.7 - -
30/10:00pm 20.9 17.6 15.1 69 3.4 NW 26 30 14 16 1009.9 - -
30/06:10pm 20.3 16.6 15.9 76 2.6 NE 30 35 16 19 1010.7 - -
30/06:00pm 20.2 16.1 16.0 77 2.5 NE 32 37 17 20 1010.8 - -
30/05:50pm 20.2 16.2 16.1 77 2.5 NE 32 35 17 19 1010.9 - -
30/05:40pm 20.1 15.9 16.2 78 2.3 NE 33 37 18 20 1010.9 - -
30/05:30pm 20.0 16.0 16.2 79 2.3 NE 32 35 17 19 1010.9 - -
30/05:20pm 20.0 16.0 16.2 79 2.3 NE 32 35 17 19 1011.0 - -
30/02:50pm 20.2 19.7 16.0 77 2.5 NE 13 15 7 8 1011.5 - -
30/02:40pm 20.2 19.7 15.9 76 2.6 NE 13 15 7 8 1011.3 - -
30/02:30pm 20.1 19.6 15.8 76 2.6 NE 13 15 7 8 1011.5 - -
30/02:20pm 20.1 19.6 15.9 77 2.5 NE 13 15 7 8 1011.7 - -
30/02:10pm 20.2 19.8 16.1 77 2.5 NE 13 15 7 8 1011.8 - -
30/02:00pm 20.3 19.9 16.3 78 2.4 NE 13 15 7 8 1011.8 - -
30/01:50pm 20.3 19.9 16.2 77 2.5 NE 13 15 7 8 1011.9 - -
30/01:40pm 20.2 20.1 16.1 77 2.5 NE 11 13 6 7 1011.8 - -
30/01:30pm 20.3 20.2 16.1 77 2.5 NE 11 13 6 7 1011.8 - -
30/01:20pm 20.3 19.8 15.9 76 2.6 NE 13 15 7 8 1011.7 - -
30/01:10pm 20.2 20.0 15.8 76 2.6 NE 11 13 6 7 1012.0 - -
30/01:00pm 20.3 20.2 15.9 76 2.6 NE 11 13 6 7 1012.0 - -
30/12:50pm 20.4 20.7 15.9 75 2.7 NE 9 11 5 6 1012.1 - -
30/12:40pm 20.5 21.2 16.0 75 2.7 NNE 7 9 4 5 1012.1 - -
30/12:30pm 20.5 21.2 16.1 76 2.6 NNE 7 9 4 5 1012.2 - -
30/12:20pm 20.5 21.7 16.0 75 2.7 NNE 4 6 2 3 1012.3 - -
30/12:10pm 20.4 21.5 15.7 74 2.8 NNE 4 6 2 3 1012.4 - -
30/12:00pm 20.5 21.6 15.6 73 2.9 NNE 4 6 2 3 1012.7 - -
30/11:50am 20.6 21.7 15.7 73 2.9 NNE 4 4 2 2 1012.8 - -
30/11:40am 20.8 22.0 15.9 73 2.9 NNE 4 6 2 3 1012.9 - -
30/11:30am 20.7 21.5 15.8 73 2.9 NNE 6 7 3 4 1013.0 - -
30/11:20am 20.6 21.3 15.7 73 2.9 N 6 9 3 5 1013.2 - -
30/11:10am 20.6 22.1 15.8 74 2.9 N 2 6 1 3 1013.3 - -
30/11:00am 20.8 22.4 16.0 74 2.9 N 2 7 1 4 1013.7 - -
30/10:50am 20.6 22.3 16.1 75 2.7 N 2 7 1 4 1013.8 - -
30/10:40am 20.8 22.2 16.4 76 2.7 N 4 7 2 4 1013.8 - -
30/10:30am 20.7 21.7 16.4 76 2.6 N 6 7 3 4 1014.1 - -
30/10:20am 20.6 21.5 16.2 76 2.6 N 6 9 3 5 1014.2 - -
30/10:10am 20.5 21.2 16.1 76 2.6 N 7 11 4 6 1014.0 - -
30/10:00am 20.5 21.4 16.1 76 2.6 N 6 9 3 5 1014.2 - -
30/09:50am 20.5 21.4 16.2 76 2.6 N 6 11 3 6 1014.4 - -
30/09:40am 20.6 21.4 16.4 77 2.5 N 7 9 4 5 1014.7 - -
30/09:30am 20.7 21.2 16.5 77 2.5 N 9 11 5 6 1014.7 - -
30/09:20am 20.7 21.5 16.4 76 2.6 N 7 13 4 7 1014.8 - -
30/09:10am 20.7 21.5 16.3 76 2.7 N 7 9 4 5 1014.7 - -
30/09:00am 20.9 21.9 16.3 75 2.8 N 6 9 3 5 1014.9 - -
30/08:50am 21.0 22.0 16.3 74 2.8 N 6 9 3 5 1015.0 - -
30/04:20am 19.1 20.9 17.3 89 1.1 N 4 9 2 5 1014.2 - -
30/04:10am 19.2 20.0 17.4 89 1.1 N 9 11 5 6 1014.3 - -
30/04:00am 19.3 19.9 17.6 90 1.0 N 11 15 6 8 1014.3 - -
30/03:50am 19.4 20.4 17.7 90 1.0 N 9 13 5 7 1014.1 - -
30/03:40am 19.4 20.4 17.7 90 1.0 NNE 9 11 5 6 1014.0 - -
30/03:30am 19.4 20.0 17.7 90 1.0 NNE 11 11 6 6 1014.0 - -
30/03:20am 19.4 20.4 17.7 90 1.0 NNE 9 11 5 6 1014.0 - -
30/03:10am 19.4 20.8 17.7 90 1.0 NNE 7 11 4 6 1014.0 - -
30/03:00am 19.2 19.7 17.5 90 1.0 NNE 11 13 6 7 1014.0 - -
30/02:50am 19.2 19.7 17.5 90 1.0 NNE 11 11 6 6 1013.9 - -
30/02:40am 19.2 19.8 17.6 90 1.0 NNE 11 13 6 7 1013.8 - -
30/02:30am 19.2 20.5 17.6 90 1.0 NNE 7 9 4 5 1013.9 - -
30/02:20am 19.2 20.5 17.6 90 1.0 NNE 7 11 4 6 1013.9 - -
30/02:10am 19.1 20.6 17.5 90 1.0 NNE 6 11 3 6 1014.1 - -
30/02:00am 19.1 20.3 17.4 90 1.0 N 7 9 4 5 1014.1 - -
30/01:50am 19.0 20.2 17.3 90 1.0 NNE 7 9 4 5 1014.0 - -
30/01:40am 18.9 20.0 17.2 90 1.0 N 7 7 4 4 1013.9 - -
30/01:30am 18.9 20.2 17.2 90 1.0 N 6 7 3 4 1013.9 - -
30/01:20am 19.0 20.2 17.3 90 1.0 N 7 9 4 5 1014.0 - -
30/01:10am 19.1 21.3 17.4 90 1.0 NNE 2 7 1 4 1014.0 - -
30/01:00am 19.1 21.3 17.4 90 1.0 N 2 9 1 5 1014.2 - -
30/12:50am 19.1 20.5 17.4 90 1.0 N 6 11 3 6 1014.3 - -
30/12:40am 19.1 20.3 17.3 89 1.1 N 7 11 4 6 1014.3 - -
30/12:30am 19.0 20.1 17.2 89 1.1 NNE 7 9 4 5 1014.2 - -
30/12:20am 18.8 19.9 17.0 89 1.1 NNE 7 9 4 5 1014.1 - -
30/12:10am 18.6 19.8 16.8 89 1.1 NNE 6 7 3 4 1014.1 - -
30/12:00am 18.7 19.9 16.9 89 1.1 NNE 6 7 3 4 1014.1 - -
 
Date/Time
EST
Temp
°C
App
Temp
°C
Dew
Point
Rel
Hum
%
Delta-T
°C
Wind Press
QNH
hPa
Press
MSL
hPa
Rain
since 9 am
mm
Dir
 
Spd
km/h
Gust
km/h
Spd
kts
Gust
kts
29/11:50pm 18.7 20.3 16.9 89 1.1 NNE 4 4 2 2 1014.2 - -
29/11:40pm 18.8 20.1 17.0 89 1.1 NNE 6 6 3 3 1014.3 - -
29/11:20pm 18.8 20.8 16.9 89 1.1 NNE 2 4 1 2 1014.1 - -
29/11:10pm 18.8 20.8 16.9 89 1.1 NNE 2 4 1 2 1014.0 - -
29/11:00pm 18.6 20.1 16.7 89 1.1 NE 4 4 2 2 1014.1 - -
29/10:50pm 18.5 20.4 16.6 89 1.1 NNE 2 4 1 2 1014.2 - -
29/10:40pm 18.4 19.8 16.5 89 1.1 NE 4 6 2 3 1014.3 - -
29/10:30pm 18.5 19.9 16.5 88 1.2 NE 4 6 2 3 1014.4 - -
29/10:20pm 18.6 20.1 16.6 88 1.2 NE 4 4 2 2 1014.4 - -
29/10:10pm 18.6 20.5 16.7 89 1.1 NE 2 4 1 2 1014.5 - -
29/10:00pm 18.7 21.0 16.7 88 1.2 CALM 0 2 0 1 1014.6 - -
29/09:50pm 18.8 21.1 16.8 88 1.2 CALM 0 0 0 0 1014.6 - -
29/09:40pm 18.1 19.8 16.2 89 1.1 NE 2 6 1 3 1014.6 - -
29/09:30pm 18.3 19.4 16.6 90 1.0 NE 6 7 3 4 1014.6 - -
29/09:20pm 18.4 19.3 16.7 90 1.0 NE 7 9 4 5 1014.7 - -
29/09:10pm 18.4 19.5 16.7 90 1.0 NE 6 7 3 4 1014.7 - -
29/09:00pm 18.5 19.7 16.8 90 1.0 NE 6 7 3 4 1014.6 - -
29/08:50pm 18.6 19.9 17.1 91 0.9 NE 6 7 3 4 1014.5 - -
29/08:40pm 18.2 19.7 16.6 90 1.0 NE 4 9 2 5 1014.4 - -
29/08:30pm 18.1 19.2 16.6 91 0.9 NE 6 7 3 4 1014.3 - -
29/08:20pm 18.1 19.0 16.5 90 1.0 NE 7 13 4 7 1014.2 - -
29/08:10pm 18.1 18.6 16.5 90 1.0 NE 9 11 5 6 1014.3 - -
29/08:00pm 18.0 19.4 16.4 90 1.0 ENE 4 7 2 4 1014.2 - -
29/07:50pm 18.0 18.8 16.4 90 1.0 ENE 7 9 4 5 1014.1 - -
29/07:40pm 17.9 18.9 16.4 91 0.9 ENE 6 9 3 5 1014.2 - -
29/07:30pm 17.9 18.9 16.3 90 1.0 E 6 7 3 4 1014.1 - -
29/07:20pm 17.8 18.7 16.2 90 1.0 E 6 7 3 4 1014.1 - -
29/07:10pm 17.7 19.0 16.1 90 0.9 E 4 6 2 3 1014.2 - -
29/07:00pm 17.7 19.4 16.1 90 0.9 ESE 2 9 1 5 1014.3 - -
29/06:50pm 17.6 18.5 16.1 91 0.9 SE 6 13 3 7 1014.3 - -
29/06:40pm 17.6 18.3 16.1 91 0.9 SSE 7 9 4 5 1014.4 - -
29/06:30pm 17.6 17.9 16.0 90 0.9 SSE 9 9 5 5 1014.4 - -
29/06:20pm 17.6 17.9 16.0 90 0.9 S 9 11 5 6 1014.4 - -
29/06:10pm 17.6 17.9 15.9 90 1.0 S 9 11 5 6 1014.5 - -
29/06:00pm 17.6 17.8 15.8 89 1.1 S 9 13 5 7 1014.7 - -
29/05:50pm 17.9 18.0 15.5 86 1.4 S 9 11 5 6 1014.7 - -
29/05:40pm 18.2 18.2 15.3 83 1.7 S 9 11 5 6 1014.8 - -
29/05:30pm 18.6 17.9 15.3 81 1.9 SSW 13 15 7 8 1014.9 - -
29/05:20pm 18.9 17.4 15.4 80 2.1 SSW 17 20 9 11 1014.8 - -
29/05:10pm 19.0 17.1 15.2 78 2.2 SW 19 20 10 11 1014.8 - -
29/05:00pm 19.1 17.2 15.2 78 2.3 SW 19 22 10 12 1014.5 - -
29/04:50pm 19.3 17.8 15.3 77 2.4 SW 17 20 9 11 1014.5 - -
29/04:40pm 19.4 17.9 15.2 76 2.5 SW 17 20 9 11 1014.5 - -
29/04:30pm 19.4 17.8 15.1 76 2.5 SW 17 22 9 12 1014.4 - -
29/04:20pm 19.7 17.7 15.0 74 2.8 SW 19 24 10 13 1014.5 - -
29/04:10pm 19.9 17.7 15.0 73 2.9 SSW 20 22 11 12 1014.7 - -
29/04:00pm 20.1 18.1 15.0 72 3.0 SSW 19 24 10 13 1014.5 - -
29/03:50pm 20.0 17.8 14.9 72 3.0 SSW 20 24 11 13 1014.5 - -
29/03:40pm 20.0 17.8 14.9 72 3.0 SSW 20 24 11 13 1014.5 - -
29/03:30pm 20.0 17.7 14.7 71 3.1 SSW 20 24 11 13 1014.4 - -
29/03:20pm 20.8 18.2 15.0 69 3.4 SSW 22 26 12 14 1014.3 - -
29/03:10pm 21.6 19.6 15.4 68 3.7 SW 20 28 11 15 1014.0 - -
29/03:00pm 21.8 21.3 14.9 65 4.1 WSW 11 19 6 10 1013.8 - -
29/02:50pm 22.2 22.6 15.3 65 4.1 W 7 11 4 6 1013.7 - -
29/02:40pm 22.0 22.8 15.8 68 3.7 WNW 6 9 3 5 1013.6 - -
29/02:30pm 21.5 22.6 15.7 69 3.5 NW 4 13 2 7 1013.6 - -

Other Formats:

Comma delimited format used in spreadsheet applications
http://www.bom.gov.au/fwo/IDV60801/IDV60801.55039.axf

JavaScript Object Notation format (JSON) in row-major order
http://www.bom.gov.au/fwo/IDV60801/IDV60801.55039.json